createdAt,value
2022-10-08T00:00:46.240Z,11.91
2022-10-08T00:01:46.255Z,11.91
2022-10-08T00:02:46.493Z,11.90
2022-10-08T00:03:46.536Z,11.90
2022-10-08T00:04:46.186Z,11.91
2022-10-08T00:05:46.160Z,11.88
2022-10-08T00:06:46.175Z,11.94
2022-10-08T00:07:46.129Z,11.91
2022-10-08T00:08:46.559Z,11.94
2022-10-08T00:09:46.110Z,11.96
2022-10-08T00:10:46.099Z,11.96
2022-10-08T00:11:46.081Z,12.01
2022-10-08T00:12:46.347Z,12.05
2022-10-08T00:13:46.368Z,12.07
2022-10-08T00:14:46.046Z,12.07
2022-10-08T00:15:46.028Z,12.07
2022-10-08T00:16:46.020Z,12.07
2022-10-08T00:17:46.004Z,12.09
2022-10-08T00:18:46.348Z,12.09
2022-10-08T00:19:45.985Z,12.07
2022-10-08T00:20:45.969Z,12.07
2022-10-08T00:21:45.958Z,12.09
2022-10-08T00:22:46.147Z,12.10
2022-10-08T00:23:46.245Z,12.13
2022-10-08T00:24:45.920Z,12.14
2022-10-08T00:25:45.915Z,12.16
2022-10-08T00:26:45.883Z,12.16
2022-10-08T00:27:45.865Z,12.16
2022-10-08T00:28:46.279Z,12.14
2022-10-08T00:29:45.868Z,12.13
2022-10-08T00:30:45.838Z,12.13
2022-10-08T00:31:45.989Z,12.10
2022-10-08T00:32:46.097Z,12.09
2022-10-08T00:33:45.793Z,12.09
2022-10-08T00:34:46.082Z,12.07
2022-10-08T00:35:45.764Z,12.05
2022-10-08T00:36:45.743Z,12.04
2022-10-08T00:37:45.731Z,12.01
2022-10-08T00:38:45.730Z,12.01
2022-10-08T00:39:46.052Z,11.99
2022-10-08T00:40:45.692Z,11.99
2022-10-08T00:41:45.680Z,11.99
2022-10-08T00:42:45.917Z,11.99
2022-10-08T00:43:45.651Z,11.99
2022-10-08T00:44:46.092Z,11.98
2022-10-08T00:45:45.687Z,11.98
2022-10-08T00:46:45.623Z,11.96
2022-10-08T00:47:45.615Z,11.91
2022-10-08T00:48:45.590Z,11.91
2022-10-08T00:49:45.884Z,11.88
2022-10-08T00:50:45.569Z,11.86
2022-10-08T00:51:45.539Z,11.85
2022-10-08T00:52:45.896Z,11.86
2022-10-08T00:53:45.520Z,11.82
2022-10-08T00:54:46.116Z,11.80
2022-10-08T00:55:45.489Z,11.78
2022-10-08T00:56:45.499Z,11.76
2022-10-08T00:57:45.462Z,11.72
2022-10-08T00:58:45.771Z,11.70
2022-10-08T00:59:45.445Z,11.70
2022-10-08T01:00:45.440Z,11.67
2022-10-08T01:01:45.466Z,11.65
2022-10-08T01:02:45.678Z,11.65
2022-10-08T01:03:45.724Z,11.64
2022-10-08T01:04:45.474Z,11.67
2022-10-08T01:05:45.372Z,11.72
2022-10-08T01:06:45.354Z,11.76
2022-10-08T01:07:45.327Z,11.78
2022-10-08T01:08:45.321Z,11.78
2022-10-08T01:09:45.610Z,11.78
2022-10-08T01:10:45.306Z,11.79
2022-10-08T01:11:45.275Z,11.80
2022-10-08T01:12:45.586Z,11.82
2022-10-08T01:13:45.264Z,11.82
2022-10-08T01:14:45.675Z,11.80
2022-10-08T01:15:45.222Z,11.82
2022-10-08T01:16:45.285Z,11.80
2022-10-08T01:17:45.195Z,11.78
2022-10-08T01:18:45.195Z,11.76
2022-10-08T01:19:45.406Z,11.76
2022-10-08T01:20:45.166Z,11.75
2022-10-08T01:21:45.143Z,11.76
2022-10-08T01:22:45.386Z,11.76
2022-10-08T01:23:45.124Z,11.76
2022-10-08T01:24:45.414Z,11.79
2022-10-08T01:25:45.092Z,11.82
2022-10-08T01:26:45.092Z,11.85
2022-10-08T01:27:45.070Z,11.86
2022-10-08T01:28:45.111Z,11.90
2022-10-08T01:29:45.476Z,11.91
2022-10-08T01:30:45.032Z,11.94
2022-10-08T01:31:45.068Z,11.91
2022-10-08T01:32:45.211Z,11.95
2022-10-08T01:33:44.983Z,11.96
2022-10-08T01:34:45.304Z,12.02
2022-10-08T01:35:44.971Z,12.05
2022-10-08T01:36:44.958Z,12.07
2022-10-08T01:37:44.938Z,12.07
2022-10-08T01:38:44.922Z,12.09
2022-10-08T01:39:45.339Z,12.10
2022-10-08T01:40:44.905Z,12.10
2022-10-08T01:41:44.877Z,12.12
2022-10-08T01:42:45.203Z,12.13
2022-10-08T01:43:44.859Z,12.14
2022-10-08T01:44:45.209Z,12.14
2022-10-08T01:45:44.989Z,12.16
2022-10-08T01:46:44.817Z,12.16
2022-10-08T01:47:44.824Z,12.17
2022-10-08T01:48:44.808Z,12.17
2022-10-08T01:49:45.215Z,12.16
2022-10-08T01:50:44.768Z,12.13
2022-10-08T01:51:44.746Z,12.12
2022-10-08T01:52:44.958Z,12.09
2022-10-08T01:53:44.726Z,12.07
2022-10-08T01:54:45.137Z,12.05
2022-10-08T01:55:44.697Z,12.04
2022-10-08T01:56:44.692Z,12.02
2022-10-08T01:57:44.671Z,12.04
2022-10-08T01:58:44.675Z,12.09
2022-10-08T01:59:45.017Z,12.10
2022-10-08T02:00:44.683Z,12.10
2022-10-08T02:01:44.671Z,12.12
2022-10-08T02:02:44.878Z,12.16
2022-10-08T02:03:44.584Z,12.17
2022-10-08T02:04:51.994Z,12.19
2022-10-08T02:05:52.571Z,12.21
2022-10-08T02:06:51.567Z,12.23
2022-10-08T02:07:51.544Z,12.21
2022-10-08T02:08:51.531Z,12.20
2022-10-08T02:09:51.910Z,12.20
2022-10-08T02:10:52.525Z,12.16
2022-10-08T02:11:51.488Z,12.12
2022-10-08T02:12:51.478Z,12.07
2022-10-08T02:13:51.467Z,12.05
2022-10-08T02:14:51.781Z,12.02
2022-10-08T02:15:51.430Z,12.02
2022-10-08T02:16:51.481Z,11.99
2022-10-08T02:17:51.409Z,11.98
2022-10-08T02:18:51.393Z,11.96
2022-10-08T02:19:51.819Z,11.96
2022-10-08T02:20:44.371Z,11.99
2022-10-08T02:21:44.351Z,11.98
2022-10-08T02:22:44.463Z,12.01
2022-10-08T02:23:51.338Z,12.01
2022-10-08T02:24:44.691Z,12.01
2022-10-08T02:25:44.309Z,11.99
2022-10-08T02:26:51.298Z,11.99
2022-10-08T02:27:44.282Z,11.99
2022-10-08T02:28:51.263Z,12.01
2022-10-08T02:29:44.254Z,11.99
2022-10-08T02:30:44.584Z,12.01
2022-10-08T02:31:44.260Z,12.01
2022-10-08T02:32:44.354Z,12.01
2022-10-08T02:33:44.212Z,11.99
2022-10-08T02:34:44.626Z,12.01
2022-10-08T02:35:44.182Z,12.01
2022-10-08T02:36:44.171Z,12.01
2022-10-08T02:37:44.152Z,12.07
2022-10-08T02:38:44.132Z,12.12
2022-10-08T02:39:44.123Z,12.13
2022-10-08T02:40:44.521Z,12.14
2022-10-08T02:41:44.091Z,12.16
2022-10-08T02:42:44.296Z,12.16
2022-10-08T02:43:44.072Z,12.16
2022-10-08T02:44:44.057Z,12.14
2022-10-08T02:45:44.519Z,12.17
2022-10-08T02:46:44.029Z,12.21
2022-10-08T02:47:44.041Z,12.24
2022-10-08T02:48:44.021Z,12.27
2022-10-08T02:49:43.990Z,12.27
2022-10-08T02:50:44.399Z,12.28
2022-10-08T02:51:43.968Z,12.27
2022-10-08T02:52:44.319Z,12.24
2022-10-08T02:53:43.951Z,12.23
2022-10-08T02:54:43.940Z,12.21
2022-10-08T02:55:44.328Z,12.21
2022-10-08T02:56:43.907Z,12.21
2022-10-08T02:57:43.888Z,12.23
2022-10-08T02:58:43.871Z,12.21
2022-10-08T02:59:43.885Z,12.23
2022-10-08T03:00:44.218Z,12.24
2022-10-08T03:01:43.827Z,12.24
2022-10-08T03:02:43.948Z,12.21
2022-10-08T03:03:43.817Z,12.20
2022-10-08T03:04:44.233Z,12.20
2022-10-08T03:05:43.795Z,12.20
2022-10-08T03:06:43.766Z,12.20
2022-10-08T03:07:43.746Z,12.21
2022-10-08T03:08:43.748Z,12.21
2022-10-08T03:09:43.741Z,12.23
2022-10-08T03:10:44.035Z,12.21
2022-10-08T03:11:43.703Z,12.24
2022-10-08T03:12:43.817Z,12.23
2022-10-08T03:13:43.687Z,12.23
2022-10-08T03:14:44.016Z,12.24
2022-10-08T03:15:43.663Z,12.23
2022-10-08T03:16:43.744Z,12.24
2022-10-08T03:17:43.637Z,12.24
2022-10-08T03:18:43.610Z,12.24
2022-10-08T03:19:43.604Z,12.27
2022-10-08T03:20:43.917Z,12.29
2022-10-08T03:21:43.574Z,12.28
2022-10-08T03:22:43.580Z,12.28
2022-10-08T03:23:43.545Z,12.24
2022-10-08T03:24:43.764Z,12.27
2022-10-08T03:25:43.521Z,12.24
2022-10-08T03:26:43.520Z,12.23
2022-10-08T03:27:43.492Z,12.21
2022-10-08T03:28:43.515Z,12.19
2022-10-08T03:29:43.694Z,12.19
2022-10-08T03:30:43.495Z,12.16
2022-10-08T03:31:43.450Z,12.14
2022-10-08T03:32:43.534Z,12.14
2022-10-08T03:33:43.427Z,12.14
2022-10-08T03:34:43.833Z,12.13
2022-10-08T03:35:43.403Z,12.10
2022-10-08T03:36:43.381Z,12.09
2022-10-08T03:37:43.371Z,12.05
2022-10-08T03:38:43.347Z,12.05
2022-10-08T03:39:43.341Z,12.02
2022-10-08T03:40:43.752Z,12.01
2022-10-08T03:41:43.330Z,11.98
2022-10-08T03:42:43.297Z,11.98
2022-10-08T03:43:43.288Z,11.94
2022-10-08T03:44:43.709Z,11.91
2022-10-08T03:45:43.312Z,11.94
2022-10-08T03:46:43.248Z,11.96
2022-10-08T03:47:43.237Z,11.98
2022-10-08T03:48:43.228Z,11.98
2022-10-08T03:49:43.639Z,12.01
2022-10-08T03:50:43.206Z,12.02
2022-10-08T03:51:43.185Z,12.05
2022-10-08T03:52:43.178Z,12.05
2022-10-08T03:53:43.158Z,12.05
2022-10-08T03:54:43.516Z,12.05
2022-10-08T03:55:43.129Z,12.07
2022-10-08T03:56:43.134Z,12.05
2022-10-08T03:57:43.104Z,12.05
2022-10-08T03:58:51.127Z,12.01
2022-10-08T03:59:51.673Z,12.01
2022-10-08T04:00:43.055Z,11.99
2022-10-08T04:01:43.164Z,12.01
2022-10-08T04:02:43.087Z,12.02
2022-10-08T04:03:43.025Z,12.04
2022-10-08T04:04:43.304Z,12.04
2022-10-08T04:05:42.994Z,12.05
2022-10-08T04:06:42.991Z,12.07
2022-10-08T04:07:42.965Z,12.09
2022-10-08T04:08:42.971Z,12.09
2022-10-08T04:09:43.373Z,12.10
2022-10-08T04:10:42.933Z,12.09
2022-10-08T04:11:42.939Z,12.09
2022-10-08T04:12:42.931Z,12.12
2022-10-08T04:13:42.909Z,12.12
2022-10-08T04:14:43.243Z,12.10
2022-10-08T04:15:42.930Z,12.13
2022-10-08T04:16:42.862Z,12.13
2022-10-08T04:17:42.863Z,12.16
2022-10-08T04:18:42.842Z,12.16
2022-10-08T04:19:43.151Z,12.16
2022-10-08T04:20:42.821Z,12.17
2022-10-08T04:21:42.802Z,12.17
2022-10-08T04:22:42.786Z,12.20
2022-10-08T04:23:42.774Z,12.20
2022-10-08T04:24:43.178Z,12.19
2022-10-08T04:25:42.748Z,12.20
2022-10-08T04:26:42.736Z,12.20
2022-10-08T04:27:42.731Z,12.20
2022-10-08T04:28:42.783Z,12.21
2022-10-08T04:29:43.001Z,12.21
2022-10-08T04:30:42.731Z,12.24
2022-10-08T04:31:42.675Z,12.24
2022-10-08T04:32:42.679Z,12.24
2022-10-08T04:33:42.638Z,12.28
2022-10-08T04:34:43.105Z,12.28
2022-10-08T04:35:42.621Z,12.29
2022-10-08T04:36:42.619Z,12.29
2022-10-08T04:37:42.598Z,12.29
2022-10-08T04:38:42.569Z,12.32
2022-10-08T04:39:42.585Z,12.34
2022-10-08T04:40:43.184Z,12.35
2022-10-08T04:41:42.541Z,12.37
2022-10-08T04:42:42.516Z,12.38
2022-10-08T04:43:42.511Z,12.41
2022-10-08T04:44:42.499Z,12.41
2022-10-08T04:45:43.131Z,12.41
2022-10-08T04:46:42.530Z,12.41
2022-10-08T04:47:42.455Z,12.41
2022-10-08T04:48:42.449Z,12.38
2022-10-08T04:49:42.436Z,12.38
2022-10-08T04:50:42.836Z,12.38
2022-10-08T04:51:42.405Z,12.38
2022-10-08T04:52:42.394Z,12.41
2022-10-08T04:53:42.382Z,12.39
2022-10-08T04:54:42.894Z,12.41
2022-10-08T04:55:42.361Z,12.39
2022-10-08T04:56:42.336Z,12.42
2022-10-08T04:57:42.325Z,12.41
2022-10-08T04:58:42.320Z,12.42
2022-10-08T05:00:05.711Z,12.45
2022-10-08T05:00:43.563Z,12.46
2022-10-08T05:01:42.306Z,12.46
2022-10-08T05:02:42.320Z,12.46
2022-10-08T05:03:42.254Z,12.46
2022-10-08T05:04:42.833Z,12.47
2022-10-08T05:05:42.223Z,12.47
2022-10-08T05:06:42.211Z,12.47
2022-10-08T05:07:42.191Z,12.46
2022-10-08T05:08:42.181Z,12.46
2022-10-08T05:09:42.665Z,12.47
2022-10-08T05:10:42.164Z,12.47
2022-10-08T05:11:42.141Z,12.47
2022-10-08T05:12:42.122Z,12.47
2022-10-08T05:13:42.125Z,12.52
2022-10-08T05:14:42.580Z,12.52
2022-10-08T05:15:42.115Z,12.52
2022-10-08T05:16:42.079Z,12.52
2022-10-08T05:17:42.100Z,12.53
2022-10-08T05:18:42.062Z,12.54
2022-10-08T05:19:42.479Z,12.56
2022-10-08T05:20:42.031Z,12.54
2022-10-08T05:21:42.208Z,12.57
2022-10-08T05:22:42.006Z,12.57
2022-10-08T05:23:41.988Z,12.59
2022-10-08T05:24:42.382Z,12.62
2022-10-08T05:25:41.972Z,12.64
2022-10-08T05:26:57.383Z,12.67
2022-10-08T05:27:42.938Z,12.67
2022-10-08T05:28:41.992Z,12.68
2022-10-08T05:29:42.360Z,12.70
2022-10-08T05:30:41.897Z,12.68
2022-10-08T05:31:41.877Z,12.70
2022-10-08T05:32:41.908Z,12.70
2022-10-08T05:33:41.866Z,12.70
2022-10-08T05:34:42.193Z,12.70
2022-10-08T05:35:41.895Z,12.71
2022-10-08T05:36:41.938Z,12.70
2022-10-08T05:37:41.804Z,12.67
2022-10-08T05:38:41.784Z,12.65
2022-10-08T05:39:42.216Z,12.65
2022-10-08T05:40:41.779Z,12.64
2022-10-08T05:41:41.754Z,12.64
2022-10-08T05:42:41.737Z,12.65
2022-10-08T05:43:41.722Z,12.65
2022-10-08T05:44:45.299Z,12.67
2022-10-08T05:45:41.696Z,12.68
2022-10-08T05:46:41.792Z,12.68
2022-10-08T05:47:41.676Z,12.70
2022-10-08T05:48:41.653Z,12.71
2022-10-08T05:49:41.642Z,12.75
2022-10-08T05:50:41.994Z,12.78
2022-10-08T05:51:41.624Z,12.82
2022-10-08T05:52:41.603Z,12.83
2022-10-08T05:53:41.600Z,12.87
2022-10-08T05:54:42.005Z,12.87
2022-10-08T05:55:41.603Z,12.90
2022-10-08T05:56:41.539Z,12.92
2022-10-08T05:57:41.534Z,12.95
2022-10-08T05:58:41.530Z,12.96
2022-10-08T05:59:41.881Z,12.97
2022-10-08T06:00:41.492Z,13.01
2022-10-08T06:01:41.487Z,13.05
2022-10-08T06:02:41.512Z,13.10
2022-10-08T06:03:41.439Z,13.14
2022-10-08T06:04:41.941Z,13.19
2022-10-08T06:05:41.419Z,13.23
2022-10-08T06:06:41.400Z,13.26
2022-10-08T06:07:41.379Z,13.29
2022-10-08T06:08:41.399Z,13.33
2022-10-08T06:09:41.349Z,13.38
2022-10-08T06:10:41.819Z,13.39
2022-10-08T06:11:41.339Z,13.42
2022-10-08T06:12:41.338Z,13.45
2022-10-08T06:13:41.308Z,13.46
2022-10-08T06:14:41.296Z,13.48
2022-10-08T06:15:41.588Z,13.48
2022-10-08T06:16:41.326Z,13.48
2022-10-08T06:17:48.286Z,13.46
2022-10-08T06:18:41.242Z,13.48
2022-10-08T06:19:41.221Z,13.46
2022-10-08T06:20:41.650Z,13.49
2022-10-08T06:21:41.195Z,13.51
2022-10-08T06:22:48.745Z,13.49
2022-10-08T06:23:48.182Z,13.52
2022-10-08T06:24:41.154Z,13.55
2022-10-08T06:25:41.449Z,13.54
2022-10-08T06:26:41.126Z,13.54
2022-10-08T06:27:41.118Z,13.54
2022-10-08T06:28:49.102Z,13.55
2022-10-08T06:29:41.089Z,13.55
2022-10-08T06:30:48.553Z,13.57
2022-10-08T06:31:41.092Z,13.60
2022-10-08T06:32:48.353Z,13.63
2022-10-08T06:33:41.044Z,13.64
2022-10-08T06:34:41.014Z,13.67
2022-10-08T06:35:41.333Z,13.67
2022-10-08T06:36:49.057Z,13.63
2022-10-08T06:37:48.176Z,13.62
2022-10-08T06:38:40.976Z,13.62
2022-10-08T06:39:44.896Z,13.62
2022-10-08T06:40:42.406Z,13.62
2022-10-08T06:41:47.921Z,13.63
2022-10-08T06:42:40.911Z,13.63
2022-10-08T06:43:40.909Z,13.66
2022-10-08T06:44:40.890Z,13.67
2022-10-08T06:45:41.230Z,13.69
2022-10-08T06:46:40.915Z,13.69
2022-10-08T06:47:40.852Z,13.69
2022-10-08T06:48:40.848Z,13.73
2022-10-08T06:49:40.822Z,13.73
2022-10-08T06:50:41.190Z,13.77
2022-10-08T06:51:41.196Z,13.78
2022-10-08T06:52:42.099Z,13.81
2022-10-08T06:53:41.040Z,13.82
2022-10-08T06:54:40.849Z,13.85
2022-10-08T06:55:41.171Z,13.89
2022-10-08T06:56:40.759Z,13.91
2022-10-08T06:57:41.157Z,13.95
2022-10-08T06:58:40.996Z,14.02
2022-10-08T06:59:40.962Z,14.07
2022-10-08T07:00:40.821Z,14.17
2022-10-08T07:01:41.309Z,14.25
2022-10-08T07:02:40.635Z,14.43
2022-10-08T07:03:40.634Z,14.47
2022-10-08T07:04:40.996Z,14.62
2022-10-08T07:05:40.805Z,14.72
2022-10-08T07:06:41.248Z,14.75
2022-10-08T07:07:40.580Z,14.86
2022-10-08T07:08:40.593Z,14.89
2022-10-08T07:09:40.635Z,14.84
2022-10-08T07:10:41.004Z,14.86
2022-10-08T07:11:40.517Z,14.92
2022-10-08T07:12:40.587Z,15.02
2022-10-08T07:13:40.788Z,15.07
2022-10-08T07:14:40.524Z,15.11
2022-10-08T07:15:40.505Z,15.13
2022-10-08T07:16:40.589Z,15.31
2022-10-08T07:17:40.435Z,15.43
2022-10-08T07:18:40.560Z,15.53
2022-10-08T07:19:40.406Z,15.56
2022-10-08T07:20:41.064Z,15.57
2022-10-08T07:21:40.413Z,15.53
2022-10-08T07:22:40.389Z,15.56
2022-10-08T07:23:40.421Z,15.59
2022-10-08T07:24:40.353Z,15.68
2022-10-08T07:25:40.354Z,15.71
2022-10-08T07:26:40.686Z,15.76
2022-10-08T07:27:44.745Z,15.80
2022-10-08T07:28:40.366Z,15.83
2022-10-08T07:29:40.282Z,15.89
2022-10-08T07:30:40.282Z,15.93
2022-10-08T07:31:40.635Z,15.96
2022-10-08T07:32:40.244Z,16.05
2022-10-08T07:33:40.233Z,16.07
2022-10-08T07:34:40.213Z,16.11
2022-10-08T07:35:40.213Z,16.04
2022-10-08T07:36:40.435Z,15.97
2022-10-08T07:37:40.179Z,15.97
2022-10-08T07:38:40.175Z,16.11
2022-10-08T07:39:40.212Z,16.27
2022-10-08T07:40:40.140Z,16.45
2022-10-08T07:41:40.500Z,16.57
2022-10-08T07:42:40.116Z,16.82
2022-10-08T07:43:40.091Z,17.04
2022-10-08T07:44:40.098Z,17.25
2022-10-08T07:45:40.130Z,17.40
2022-10-08T07:46:40.090Z,17.34
2022-10-08T07:47:40.050Z,17.16
2022-10-08T07:48:40.040Z,17.08
2022-10-08T07:49:40.035Z,17.06
2022-10-08T07:50:40.011Z,17.07
2022-10-08T07:51:40.378Z,17.04
2022-10-08T07:52:39.988Z,17.06
2022-10-08T07:53:40.003Z,17.03
2022-10-08T07:54:39.964Z,17.00
2022-10-08T07:55:39.946Z,17.00
2022-10-08T07:56:40.367Z,16.96
2022-10-08T07:57:39.920Z,16.98
2022-10-08T07:58:39.941Z,16.98
2022-10-08T07:59:39.949Z,17.00
2022-10-08T08:00:40.009Z,17.00
2022-10-08T08:01:40.639Z,16.85
2022-10-08T08:02:39.848Z,16.64
2022-10-08T08:03:39.840Z,16.42
2022-10-08T08:04:39.838Z,16.38
2022-10-08T08:05:39.818Z,16.38
2022-10-08T08:06:40.198Z,16.41
2022-10-08T08:07:39.778Z,16.45
2022-10-08T08:08:39.802Z,16.49
2022-10-08T08:09:39.758Z,16.61
2022-10-08T08:10:39.738Z,16.79
2022-10-08T08:11:40.068Z,16.91
2022-10-08T08:12:39.755Z,17.06
2022-10-08T08:13:39.713Z,17.21
2022-10-08T08:14:39.699Z,17.28
2022-10-08T08:15:39.677Z,17.40
2022-10-08T08:16:39.857Z,17.41
2022-10-08T08:17:39.693Z,17.38
2022-10-08T08:18:39.643Z,17.44
2022-10-08T08:19:39.629Z,17.51
2022-10-08T08:20:39.633Z,17.59
2022-10-08T08:21:39.628Z,17.70
2022-10-08T08:22:39.597Z,17.78
2022-10-08T08:23:39.577Z,17.89
2022-10-08T08:24:39.576Z,18.03
2022-10-08T08:25:39.577Z,18.21
2022-10-08T08:26:39.576Z,18.45
2022-10-08T08:27:39.556Z,18.62
2022-10-08T08:28:39.620Z,18.55
2022-10-08T08:29:39.513Z,18.55
2022-10-08T08:30:39.487Z,18.37
2022-10-08T08:31:39.580Z,18.23
2022-10-08T08:32:39.465Z,18.21
2022-10-08T08:33:39.455Z,18.18
2022-10-08T08:34:39.445Z,18.23
2022-10-08T08:35:39.596Z,18.27
2022-10-08T08:36:39.716Z,18.20
2022-10-08T08:37:39.385Z,18.17
2022-10-08T08:38:39.420Z,18.25
2022-10-08T08:39:39.385Z,18.26
2022-10-08T08:40:39.375Z,18.33
2022-10-08T08:41:39.696Z,18.44
2022-10-08T08:42:39.321Z,18.51
2022-10-08T08:43:39.328Z,18.57
2022-10-08T08:44:39.286Z,18.54
2022-10-08T08:45:46.934Z,18.51
2022-10-08T08:46:40.800Z,18.48
2022-10-08T08:47:39.278Z,18.51
2022-10-08T08:48:39.255Z,18.27
2022-10-08T08:49:39.236Z,18.20
2022-10-08T08:50:39.217Z,18.21
2022-10-08T08:51:39.204Z,18.25
2022-10-08T08:52:39.606Z,18.08
2022-10-08T08:53:39.174Z,18.02
2022-10-08T08:54:39.178Z,18.21
2022-10-08T08:55:39.146Z,18.21
2022-10-08T08:56:39.144Z,18.32
2022-10-08T08:57:39.495Z,18.30
2022-10-08T08:58:39.109Z,18.17
2022-10-08T08:59:39.088Z,18.11
2022-10-08T09:00:39.088Z,18.14
2022-10-08T09:01:39.210Z,18.14
2022-10-08T09:02:39.064Z,18.15
2022-10-08T09:03:39.055Z,18.03
2022-10-08T09:04:44.282Z,17.92
2022-10-08T09:05:40.202Z,17.84
2022-10-08T09:06:39.312Z,17.84
2022-10-08T09:07:38.983Z,17.86
2022-10-08T09:08:38.985Z,17.92
2022-10-08T09:09:38.977Z,17.95
2022-10-08T09:10:38.965Z,18.07
2022-10-08T09:11:38.934Z,18.23
2022-10-08T09:12:38.954Z,18.29
2022-10-08T09:13:38.924Z,18.32
2022-10-08T09:14:38.903Z,18.42
2022-10-08T09:15:38.898Z,18.45
2022-10-08T09:16:38.979Z,18.37
2022-10-08T09:17:38.887Z,18.36
2022-10-08T09:18:38.853Z,18.44
2022-10-08T09:19:38.840Z,18.44
2022-10-08T09:20:40.360Z,18.41
2022-10-08T09:21:38.814Z,18.48
2022-10-08T09:22:39.094Z,18.47
2022-10-08T09:23:38.794Z,18.35
2022-10-08T09:24:38.815Z,18.30
2022-10-08T09:25:38.778Z,18.17
2022-10-08T09:26:38.743Z,18.05
2022-10-08T09:27:39.036Z,18.07
2022-10-08T09:28:38.786Z,17.93
2022-10-08T09:29:38.705Z,17.86
2022-10-08T09:30:38.755Z,17.81
2022-10-08T09:31:38.723Z,17.78
2022-10-08T09:32:39.084Z,17.87
2022-10-08T09:33:38.662Z,17.96
2022-10-08T09:34:38.648Z,18.02
2022-10-08T09:35:38.635Z,18.05
2022-10-08T09:36:38.615Z,18.27
2022-10-08T09:37:38.970Z,18.29
2022-10-08T09:38:38.591Z,18.39
2022-10-08T09:39:38.592Z,18.50
2022-10-08T09:40:38.565Z,18.35
2022-10-08T09:41:38.552Z,18.32
2022-10-08T09:42:38.836Z,18.44
2022-10-08T09:43:38.536Z,18.45
2022-10-08T09:44:38.512Z,18.33
2022-10-08T09:45:38.530Z,18.20
2022-10-08T09:46:38.482Z,18.05
2022-10-08T09:47:38.893Z,17.95
2022-10-08T09:48:38.493Z,17.84
2022-10-08T09:49:38.450Z,17.95
2022-10-08T09:50:38.489Z,18.02
2022-10-08T09:51:38.413Z,17.97
2022-10-08T09:52:38.732Z,17.99
2022-10-08T09:53:38.384Z,18.11
2022-10-08T09:54:38.404Z,18.15
2022-10-08T09:55:38.363Z,18.35
2022-10-08T09:56:38.375Z,18.52
2022-10-08T09:57:43.598Z,18.72
2022-10-08T09:58:39.335Z,18.87
2022-10-08T09:59:38.321Z,18.92
2022-10-08T10:00:38.301Z,19.02
2022-10-08T10:01:38.331Z,19.21
2022-10-08T10:02:38.701Z,19.21
2022-10-08T10:03:38.311Z,19.13
2022-10-08T10:04:38.253Z,19.21
2022-10-08T10:05:38.245Z,19.39
2022-10-08T10:06:38.221Z,19.50
2022-10-08T10:07:38.549Z,19.48
2022-10-08T10:08:38.216Z,19.32
2022-10-08T10:09:38.171Z,19.23
2022-10-08T10:10:38.162Z,19.18
2022-10-08T10:11:38.171Z,19.13
2022-10-08T10:12:38.565Z,19.07
2022-10-08T10:13:38.141Z,18.94
2022-10-08T10:14:38.125Z,18.88
2022-10-08T10:15:38.122Z,18.75
2022-10-08T10:16:38.129Z,18.66
2022-10-08T10:17:38.083Z,18.44
2022-10-08T10:18:38.462Z,18.33
2022-10-08T10:19:38.051Z,18.29
2022-10-08T10:20:38.032Z,18.33
2022-10-08T10:21:38.021Z,18.41
2022-10-08T10:22:38.436Z,18.32
2022-10-08T10:23:37.991Z,18.14
2022-10-08T10:24:37.995Z,18.14
2022-10-08T10:25:37.961Z,18.07
2022-10-08T10:26:37.951Z,18.00
2022-10-08T10:27:37.953Z,18.10
2022-10-08T10:28:38.280Z,18.12
2022-10-08T10:29:37.934Z,18.18
2022-10-08T10:30:37.964Z,18.17
2022-10-08T10:31:37.892Z,18.18
2022-10-08T10:32:37.883Z,18.30
2022-10-08T10:33:38.301Z,18.55
2022-10-08T10:34:37.851Z,18.78
2022-10-08T10:35:37.833Z,18.81
2022-10-08T10:36:37.831Z,18.90
2022-10-08T10:37:37.801Z,18.92
2022-10-08T10:38:42.791Z,18.84
2022-10-08T10:39:38.813Z,18.76
2022-10-08T10:40:37.761Z,18.62
2022-10-08T10:41:37.753Z,18.63
2022-10-08T10:42:37.741Z,18.70
2022-10-08T10:43:38.160Z,18.73
2022-10-08T10:44:37.720Z,18.84
2022-10-08T10:45:37.702Z,19.07
2022-10-08T10:46:37.730Z,19.22
2022-10-08T10:47:37.679Z,19.22
2022-10-08T10:48:37.955Z,19.26
2022-10-08T10:49:37.650Z,19.22
2022-10-08T10:50:37.641Z,19.23
2022-10-08T10:51:37.620Z,19.18
2022-10-08T10:52:38.017Z,19.07
2022-10-08T10:53:37.594Z,19.00
2022-10-08T10:54:37.581Z,18.95
2022-10-08T10:55:37.575Z,18.88
2022-10-08T10:56:37.549Z,18.73
2022-10-08T10:57:37.539Z,18.50
2022-10-08T10:58:37.880Z,18.39
2022-10-08T10:59:37.517Z,18.41
2022-10-08T11:00:37.497Z,18.36
2022-10-08T11:01:37.530Z,18.35
2022-10-08T11:02:37.502Z,18.32
2022-10-08T11:03:37.882Z,18.35
2022-10-08T11:04:37.438Z,18.27
2022-10-08T11:05:37.439Z,18.15
2022-10-08T11:06:37.421Z,18.02
2022-10-08T11:07:37.410Z,17.93
2022-10-08T11:08:37.797Z,17.89
2022-10-08T11:09:37.389Z,17.81
2022-10-08T11:10:37.369Z,17.72
2022-10-08T11:11:37.358Z,17.70
2022-10-08T11:12:37.340Z,17.74
2022-10-08T11:13:37.679Z,17.82
2022-10-08T11:14:37.315Z,17.92
2022-10-08T11:15:37.380Z,17.99
2022-10-08T11:16:37.289Z,18.03
2022-10-08T11:17:37.281Z,18.07
2022-10-08T11:18:37.628Z,18.07
2022-10-08T11:19:37.255Z,18.11
2022-10-08T11:20:37.239Z,18.20
2022-10-08T11:21:37.227Z,18.14
2022-10-08T11:22:37.205Z,18.14
2022-10-08T11:23:37.617Z,18.21
2022-10-08T11:24:37.180Z,18.30
2022-10-08T11:25:49.993Z,18.32
2022-10-08T11:26:38.164Z,18.32
2022-10-08T11:27:37.145Z,18.33
2022-10-08T11:28:37.518Z,18.32
2022-10-08T11:29:37.131Z,18.27
2022-10-08T11:30:37.156Z,18.23
2022-10-08T11:31:37.108Z,18.21
2022-10-08T11:32:37.089Z,18.08
2022-10-08T11:33:37.487Z,17.96
2022-10-08T11:34:37.057Z,18.00
2022-10-08T11:35:37.052Z,18.02
2022-10-08T11:36:37.030Z,18.07
2022-10-08T11:37:37.021Z,18.10
2022-10-08T11:38:37.027Z,18.08
2022-10-08T11:39:36.996Z,18.07
2022-10-08T11:40:36.974Z,18.20
2022-10-08T11:41:36.957Z,18.27
2022-10-08T11:42:40.728Z,18.26
2022-10-08T11:43:38.239Z,18.33
2022-10-08T11:44:36.925Z,18.39
2022-10-08T11:45:36.904Z,18.55
2022-10-08T11:46:36.958Z,18.70
2022-10-08T11:47:36.884Z,18.78
2022-10-08T11:48:36.868Z,18.81
2022-10-08T11:49:36.897Z,18.66
2022-10-08T11:50:36.848Z,18.52
2022-10-08T11:51:36.817Z,18.58
2022-10-08T11:52:36.804Z,18.60
2022-10-08T11:53:36.818Z,18.67
2022-10-08T11:54:36.804Z,18.75
2022-10-08T11:55:36.784Z,18.84
2022-10-08T11:56:36.755Z,18.90
2022-10-08T11:58:06.318Z,18.90
2022-10-08T11:58:38.144Z,18.80
2022-10-08T11:59:36.733Z,18.70
2022-10-08T12:00:36.710Z,18.65
2022-10-08T12:01:36.694Z,18.66
2022-10-08T12:02:36.790Z,18.62
2022-10-08T12:03:36.838Z,18.55
2022-10-08T12:04:36.683Z,18.58
2022-10-08T12:05:36.646Z,18.58
2022-10-08T12:06:36.625Z,18.63
2022-10-08T12:07:36.625Z,18.66
2022-10-08T12:08:36.656Z,18.58
2022-10-08T12:09:36.926Z,18.37
2022-10-08T12:10:36.594Z,18.32
2022-10-08T12:11:36.642Z,18.29
2022-10-08T12:12:36.544Z,18.32
2022-10-08T12:13:36.562Z,18.27
2022-10-08T12:14:36.864Z,18.26
2022-10-08T12:15:36.525Z,18.25
2022-10-08T12:16:36.505Z,18.27
2022-10-08T12:17:36.495Z,18.14
2022-10-08T12:18:36.495Z,18.11
2022-10-08T12:19:36.496Z,18.07
2022-10-08T12:20:36.474Z,18.14
2022-10-08T12:21:36.464Z,18.20
2022-10-08T12:22:36.444Z,18.27
2022-10-08T12:23:36.413Z,18.20
2022-10-08T12:24:36.424Z,18.17
2022-10-08T12:25:36.385Z,18.21
2022-10-08T12:26:36.366Z,18.21
2022-10-08T12:27:36.354Z,18.27
2022-10-08T12:28:36.379Z,18.29
2022-10-08T12:29:36.373Z,18.33
2022-10-08T12:30:36.332Z,18.30
2022-10-08T12:31:36.359Z,18.36
2022-10-08T12:32:36.292Z,18.52
2022-10-08T12:33:36.280Z,18.48
2022-10-08T12:34:36.552Z,18.42
2022-10-08T12:35:36.267Z,18.47
2022-10-08T12:36:36.242Z,18.55
2022-10-08T12:37:36.250Z,18.51
2022-10-08T12:38:36.221Z,18.48
2022-10-08T12:39:36.253Z,18.55
2022-10-08T12:40:36.479Z,18.57
2022-10-08T12:41:36.171Z,18.45
2022-10-08T12:42:36.163Z,18.45
2022-10-08T12:43:36.171Z,18.47
2022-10-08T12:44:36.430Z,18.44
2022-10-08T12:45:36.120Z,18.41
2022-10-08T12:46:36.202Z,18.36
2022-10-08T12:47:36.093Z,18.27
2022-10-08T12:48:36.106Z,18.14
2022-10-08T12:49:36.070Z,17.96
2022-10-08T12:50:36.105Z,17.89
2022-10-08T12:51:36.052Z,17.82
2022-10-08T12:52:36.040Z,17.75